sensor_id;sensor_type;location;lat;lon;timestamp;temperature;humidity
7461;DHT22;6757;52.258;12.840;2023-10-13T00:01:02;13.10;99.90
7461;DHT22;6757;52.258;12.840;2023-10-13T00:03:30;13.10;99.90
7461;DHT22;6757;52.258;12.840;2023-10-13T00:05:58;13.10;99.90
7461;DHT22;6757;52.258;12.840;2023-10-13T00:08:29;12.50;99.90
7461;DHT22;6757;52.258;12.840;2023-10-13T00:10:56;13.10;99.90
7461;DHT22;6757;52.258;12.840;2023-10-13T00:13:26;13.10;99.90
7461;DHT22;6757;52.258;12.840;2023-10-13T00:15:54;13.10;99.90
7461;DHT22;6757;52.258;12.840;2023-10-13T00:18:25;13.10;99.90
7461;DHT22;6757;52.258;12.840;2023-10-13T00:20:58;13.10;99.90
7461;DHT22;6757;52.258;12.840;2023-10-13T00:23:25;13.20;99.90
7461;DHT22;6757;52.258;12.840;2023-10-13T00:25:54;13.10;99.90
7461;DHT22;6757;52.258;12.840;2023-10-13T00:28:25;13.10;99.90
7461;DHT22;6757;52.258;12.840;2023-10-13T00:30:52;13.20;99.90
7461;DHT22;6757;52.258;12.840;2023-10-13T00:33:25;13.00;99.90
7461;DHT22;6757;52.258;12.840;2023-10-13T00:35:53;13.00;99.90
7461;DHT22;6757;52.258;12.840;2023-10-13T00:38:23;13.00;99.90
7461;DHT22;6757;52.258;12.840;2023-10-13T00:40:50;13.00;99.90
7461;DHT22;6757;52.258;12.840;2023-10-13T00:43:22;12.70;99.90
7461;DHT22;6757;52.258;12.840;2023-10-13T00:46:00;13.00;99.90
7461;DHT22;6757;52.258;12.840;2023-10-13T00:48:40;13.40;99.90
7461;DHT22;6757;52.258;12.840;2023-10-13T00:51:12;13.10;99.90
7461;DHT22;6757;52.258;12.840;2023-10-13T00:53:48;13.20;99.90
7461;DHT22;6757;52.258;12.840;2023-10-13T00:56:14;13.00;99.90
7461;DHT22;6757;52.258;12.840;2023-10-13T00:58:50;12.90;99.90
7461;DHT22;6757;52.258;12.840;2023-10-13T01:01:17;12.90;99.90
7461;DHT22;6757;52.258;12.840;2023-10-13T01:03:47;13.10;99.90
7461;DHT22;6757;52.258;12.840;2023-10-13T01:06:16;12.40;99.90
7461;DHT22;6757;52.258;12.840;2023-10-13T01:08:45;12.90;99.90
7461;DHT22;6757;52.258;12.840;2023-10-13T01:11:17;12.90;99.90
7461;DHT22;6757;52.258;12.840;2023-10-13T01:13:44;12.90;99.90
7461;DHT22;6757;52.258;12.840;2023-10-13T01:16:18;12.90;99.90
7461;DHT22;6757;52.258;12.840;2023-10-13T01:18:49;12.90;99.90
7461;DHT22;6757;52.258;12.840;2023-10-13T01:21:16;12.90;99.90
7461;DHT22;6757;52.258;12.840;2023-10-13T01:23:47;12.90;99.90
7461;DHT22;6757;52.258;12.840;2023-10-13T01:26:16;12.90;99.90
7461;DHT22;6757;52.258;12.840;2023-10-13T01:28:47;12.90;99.90
7461;DHT22;6757;52.258;12.840;2023-10-13T01:31:14;12.90;99.90
7461;DHT22;6757;52.258;12.840;2023-10-13T01:33:50;12.90;99.90
7461;DHT22;6757;52.258;12.840;2023-10-13T01:36:20;12.90;99.90
7461;DHT22;6757;52.258;12.840;2023-10-13T01:38:48;12.90;99.90
7461;DHT22;6757;52.258;12.840;2023-10-13T01:41:15;12.90;99.90
7461;DHT22;6757;52.258;12.840;2023-10-13T01:43:41;12.90;99.90
7461;DHT22;6757;52.258;12.840;2023-10-13T01:46:09;13.00;99.90
7461;DHT22;6757;52.258;12.840;2023-10-13T01:48:36;12.90;99.90
7461;DHT22;6757;52.258;12.840;2023-10-13T01:51:04;12.90;99.90
7461;DHT22;6757;52.258;12.840;2023-10-13T01:53:33;12.90;99.90
7461;DHT22;6757;52.258;12.840;2023-10-13T01:56:02;13.00;99.90
7461;DHT22;6757;52.258;12.840;2023-10-13T01:58:36;13.00;99.90
7461;DHT22;6757;52.258;12.840;2023-10-13T02:01:02;13.00;99.90
7461;DHT22;6757;52.258;12.840;2023-10-13T02:03:30;13.00;99.90
7461;DHT22;6757;52.258;12.840;2023-10-13T02:05:56;13.00;99.90
7461;DHT22;6757;52.258;12.840;2023-10-13T02:08:30;13.00;99.90
7461;DHT22;6757;52.258;12.840;2023-10-13T02:10:57;13.00;99.90
7461;DHT22;6757;52.258;12.840;2023-10-13T02:13:26;13.00;99.90
7461;DHT22;6757;52.258;12.840;2023-10-13T02:15:53;13.00;99.90
7461;DHT22;6757;52.258;12.840;2023-10-13T02:18:23;13.00;99.90
7461;DHT22;6757;52.258;12.840;2023-10-13T02:20:52;13.10;99.90
7461;DHT22;6757;52.258;12.840;2023-10-13T02:23:21;13.10;99.90
7461;DHT22;6757;52.258;12.840;2023-10-13T02:25:48;13.10;99.90
7461;DHT22;6757;52.258;12.840;2023-10-13T02:28:18;13.10;99.90
7461;DHT22;6757;52.258;12.840;2023-10-13T02:30:48;13.10;99.90
7461;DHT22;6757;52.258;12.840;2023-10-13T02:33:16;13.10;99.90
7461;DHT22;6757;52.258;12.840;2023-10-13T02:35:47;13.10;99.90
7461;DHT22;6757;52.258;12.840;2023-10-13T02:38:19;13.10;99.90
7461;DHT22;6757;52.258;12.840;2023-10-13T02:40:53;13.10;99.90
7461;DHT22;6757;52.258;12.840;2023-10-13T02:43:22;13.10;99.90
7461;DHT22;6757;52.258;12.840;2023-10-13T02:45:55;13.10;99.90
7461;DHT22;6757;52.258;12.840;2023-10-13T02:48:25;13.10;99.90
7461;DHT22;6757;52.258;12.840;2023-10-13T02:50:58;13.20;99.90
7461;DHT22;6757;52.258;12.840;2023-10-13T02:53:31;13.20;99.90
7461;DHT22;6757;52.258;12.840;2023-10-13T02:55:56;13.20;99.90
7461;DHT22;6757;52.258;12.840;2023-10-13T02:58:30;13.20;99.90
7461;DHT22;6757;52.258;12.840;2023-10-13T03:01:06;13.20;99.90
7461;DHT22;6757;52.258;12.840;2023-10-13T03:03:45;13.20;99.90
7461;DHT22;6757;52.258;12.840;2023-10-13T03:06:18;13.20;99.90
7461;DHT22;6757;52.258;12.840;2023-10-13T03:08:47;12.80;99.90
7461;DHT22;6757;52.258;12.840;2023-10-13T03:11:14;13.20;99.90
7461;DHT22;6757;52.258;12.840;2023-10-13T03:13:46;13.20;99.90
7461;DHT22;6757;52.258;12.840;2023-10-13T03:16:18;13.20;99.90
7461;DHT22;6757;52.258;12.840;2023-10-13T03:18:46;13.20;99.90
7461;DHT22;6757;52.258;12.840;2023-10-13T03:21:22;13.30;99.90
7461;DHT22;6757;52.258;12.840;2023-10-13T03:23:55;13.30;99.90
7461;DHT22;6757;52.258;12.840;2023-10-13T03:26:29;13.30;99.90
7461;DHT22;6757;52.258;12.840;2023-10-13T03:29:00;13.30;99.90
7461;DHT22;6757;52.258;12.840;2023-10-13T03:31:30;13.30;99.90
7461;DHT22;6757;52.258;12.840;2023-10-13T03:34:03;13.40;99.90
7461;DHT22;6757;52.258;12.840;2023-10-13T03:36:31;13.30;99.90
7461;DHT22;6757;52.258;12.840;2023-10-13T03:39:15;13.30;99.90
7461;DHT22;6757;52.258;12.840;2023-10-13T03:41:42;13.30;99.90
7461;DHT22;6757;52.258;12.840;2023-10-13T03:44:10;13.40;99.90
7461;DHT22;6757;52.258;12.840;2023-10-13T03:46:44;13.40;99.90
7461;DHT22;6757;52.258;12.840;2023-10-13T03:49:13;13.40;99.90
7461;DHT22;6757;52.258;12.840;2023-10-13T03:51:41;13.40;99.90
7461;DHT22;6757;52.258;12.840;2023-10-13T03:54:09;13.40;99.90
7461;DHT22;6757;52.258;12.840;2023-10-13T03:56:35;13.40;99.90
7461;DHT22;6757;52.258;12.840;2023-10-13T03:59:06;13.50;99.90
7461;DHT22;6757;52.258;12.840;2023-10-13T04:01:35;13.40;99.90
7461;DHT22;6757;52.258;12.840;2023-10-13T04:04:13;13.10;99.90
7461;DHT22;6757;52.258;12.840;2023-10-13T04:06:41;13.40;99.90
7461;DHT22;6757;52.258;12.840;2023-10-13T04:09:39;13.40;99.90
7461;DHT22;6757;52.258;12.840;2023-10-13T04:12:40;13.50;99.90
7461;DHT22;6757;52.258;12.840;2023-10-13T04:15:24;13.50;99.90
7461;DHT22;6757;52.258;12.840;2023-10-13T04:18:02;13.10;99.90
7461;DHT22;6757;52.258;12.840;2023-10-13T04:20:41;13.50;99.90
7461;DHT22;6757;52.258;12.840;2023-10-13T04:23:12;13.50;99.90
7461;DHT22;6757;52.258;12.840;2023-10-13T04:25:45;13.40;99.90
7461;DHT22;6757;52.258;12.840;2023-10-13T04:28:29;13.50;99.90
7461;DHT22;6757;52.258;12.840;2023-10-13T04:31:16;13.50;99.90
7461;DHT22;6757;52.258;12.840;2023-10-13T04:34:10;13.50;99.90
7461;DHT22;6757;52.258;12.840;2023-10-13T04:36:46;13.70;99.90
7461;DHT22;6757;52.258;12.840;2023-10-13T04:39:21;13.60;99.90
7461;DHT22;6757;52.258;12.840;2023-10-13T04:41:54;13.60;99.90
7461;DHT22;6757;52.258;12.840;2023-10-13T04:44:36;13.60;99.90
7461;DHT22;6757;52.258;12.840;2023-10-13T04:47:14;13.60;99.90
7461;DHT22;6757;52.258;12.840;2023-10-13T04:49:47;13.80;99.90
7461;DHT22;6757;52.258;12.840;2023-10-13T04:52:19;13.70;99.90
7461;DHT22;6757;52.258;12.840;2023-10-13T04:55:24;13.40;99.90
7461;DHT22;6757;52.258;12.840;2023-10-13T04:58:02;14.20;99.90
7461;DHT22;6757;52.258;12.840;2023-10-13T05:00:40;13.70;99.90
7461;DHT22;6757;52.258;12.840;2023-10-13T05:03:41;13.60;99.90
7461;DHT22;6757;52.258;12.840;2023-10-13T05:06:33;13.70;99.90
7461;DHT22;6757;52.258;12.840;2023-10-13T05:09:15;13.70;99.90
7461;DHT22;6757;52.258;12.840;2023-10-13T05:12:00;13.80;99.90
7461;DHT22;6757;52.258;12.840;2023-10-13T05:14:44;13.70;99.90
7461;DHT22;6757;52.258;12.840;2023-10-13T05:17:41;13.80;99.90
7461;DHT22;6757;52.258;12.840;2023-10-13T05:20:25;13.70;99.90
7461;DHT22;6757;52.258;12.840;2023-10-13T05:23:10;13.80;99.90
7461;DHT22;6757;52.258;12.840;2023-10-13T05:25:55;13.80;99.90
7461;DHT22;6757;52.258;12.840;2023-10-13T05:28:39;13.80;99.90
7461;DHT22;6757;52.258;12.840;2023-10-13T05:31:24;13.80;99.90
7461;DHT22;6757;52.258;12.840;2023-10-13T05:34:08;13.80;99.90
7461;DHT22;6757;52.258;12.840;2023-10-13T05:36:52;13.50;99.90
7461;DHT22;6757;52.258;12.840;2023-10-13T05:39:37;13.80;99.90
7461;DHT22;6757;52.258;12.840;2023-10-13T05:42:23;13.80;99.90
7461;DHT22;6757;52.258;12.840;2023-10-13T05:45:08;13.80;99.90
7461;DHT22;6757;52.258;12.840;2023-10-13T05:47:49;13.80;99.90
7461;DHT22;6757;52.258;12.840;2023-10-13T05:50:27;13.80;99.90
7461;DHT22;6757;52.258;12.840;2023-10-13T05:53:11;13.80;99.90
7461;DHT22;6757;52.258;12.840;2023-10-13T05:56:00;13.80;99.90
7461;DHT22;6757;52.258;12.840;2023-10-13T05:58:46;13.90;99.90
7461;DHT22;6757;52.258;12.840;2023-10-13T06:01:30;13.90;99.90
7461;DHT22;6757;52.258;12.840;2023-10-13T06:04:14;13.90;99.90
7461;DHT22;6757;52.258;12.840;2023-10-13T06:06:58;14.00;99.90
7461;DHT22;6757;52.258;12.840;2023-10-13T06:09:42;14.00;99.90
7461;DHT22;6757;52.258;12.840;2023-10-13T06:12:26;14.00;99.90
7461;DHT22;6757;52.258;12.840;2023-10-13T06:15:12;14.10;99.90
7461;DHT22;6757;52.258;12.840;2023-10-13T06:17:56;14.10;99.90
7461;DHT22;6757;52.258;12.840;2023-10-13T06:20:40;14.50;99.90
7461;DHT22;6757;52.258;12.840;2023-10-13T06:23:24;14.20;99.90
7461;DHT22;6757;52.258;12.840;2023-10-13T06:26:08;14.20;99.90
7461;DHT22;6757;52.258;12.840;2023-10-13T06:28:52;14.30;99.90
7461;DHT22;6757;52.258;12.840;2023-10-13T06:31:20;14.30;99.90
7461;DHT22;6757;52.258;12.840;2023-10-13T06:33:51;14.40;99.90
7461;DHT22;6757;52.258;12.840;2023-10-13T06:36:20;14.50;99.90
7461;DHT22;6757;52.258;12.840;2023-10-13T06:38:47;14.60;99.90
7461;DHT22;6757;52.258;12.840;2023-10-13T06:41:20;14.60;99.90
7461;DHT22;6757;52.258;12.840;2023-10-13T06:43:55;14.70;99.90
7461;DHT22;6757;52.258;12.840;2023-10-13T06:46:27;14.70;99.90
7461;DHT22;6757;52.258;12.840;2023-10-13T06:48:55;14.50;99.90
7461;DHT22;6757;52.258;12.840;2023-10-13T06:51:25;14.80;99.90
7461;DHT22;6757;52.258;12.840;2023-10-13T06:53:56;14.90;99.90
7461;DHT22;6757;52.258;12.840;2023-10-13T06:56:23;14.90;99.90
7461;DHT22;6757;52.258;12.840;2023-10-13T06:58:53;15.00;99.90
7461;DHT22;6757;52.258;12.840;2023-10-13T07:01:24;15.00;99.90
7461;DHT22;6757;52.258;12.840;2023-10-13T07:03:53;15.10;99.90
7461;DHT22;6757;52.258;12.840;2023-10-13T07:06:26;15.20;99.90
7461;DHT22;6757;52.258;12.840;2023-10-13T07:08:53;15.10;99.90
7461;DHT22;6757;52.258;12.840;2023-10-13T07:11:24;15.20;99.90
7461;DHT22;6757;52.258;12.840;2023-10-13T07:14:00;15.30;99.90
7461;DHT22;6757;52.258;12.840;2023-10-13T07:16:42;15.40;99.90
7461;DHT22;6757;52.258;12.840;2023-10-13T07:19:12;15.40;99.90
7461;DHT22;6757;52.258;12.840;2023-10-13T07:21:43;15.50;99.90
7461;DHT22;6757;52.258;12.840;2023-10-13T07:24:11;15.50;99.90
7461;DHT22;6757;52.258;12.840;2023-10-13T07:26:39;15.70;99.90
7461;DHT22;6757;52.258;12.840;2023-10-13T07:29:11;15.60;99.90
7461;DHT22;6757;52.258;12.840;2023-10-13T07:31:40;15.70;99.90
7461;DHT22;6757;52.258;12.840;2023-10-13T07:34:10;15.70;99.90
7461;DHT22;6757;52.258;12.840;2023-10-13T07:36:51;15.80;99.90
7461;DHT22;6757;52.258;12.840;2023-10-13T07:39:19;15.30;99.90
7461;DHT22;6757;52.258;12.840;2023-10-13T07:41:51;16.00;99.90
7461;DHT22;6757;52.258;12.840;2023-10-13T07:44:21;16.00;99.90
7461;DHT22;6757;52.258;12.840;2023-10-13T07:46:55;16.10;99.90
7461;DHT22;6757;52.258;12.840;2023-10-13T07:49:27;16.20;99.90
7461;DHT22;6757;52.258;12.840;2023-10-13T07:51:59;16.20;99.90
7461;DHT22;6757;52.258;12.840;2023-10-13T07:54:35;16.30;99.90
7461;DHT22;6757;52.258;12.840;2023-10-13T07:57:05;16.80;99.90
7461;DHT22;6757;52.258;12.840;2023-10-13T07:59:33;16.40;99.90
7461;DHT22;6757;52.258;12.840;2023-10-13T08:02:03;16.40;99.90
7461;DHT22;6757;52.258;12.840;2023-10-13T08:04:39;16.40;99.90
7461;DHT22;6757;52.258;12.840;2023-10-13T08:07:05;16.50;99.90
7461;DHT22;6757;52.258;12.840;2023-10-13T08:09:39;16.50;99.90
7461;DHT22;6757;52.258;12.840;2023-10-13T08:12:07;16.50;99.90
7461;DHT22;6757;52.258;12.840;2023-10-13T08:14:37;16.50;99.90
7461;DHT22;6757;52.258;12.840;2023-10-13T08:17:08;16.60;99.90
7461;DHT22;6757;52.258;12.840;2023-10-13T08:19:36;16.60;99.90
7461;DHT22;6757;52.258;12.840;2023-10-13T08:22:08;16.70;99.90
7461;DHT22;6757;52.258;12.840;2023-10-13T08:24:51;16.70;99.90
7461;DHT22;6757;52.258;12.840;2023-10-13T08:27:38;16.80;99.90
7461;DHT22;6757;52.258;12.840;2023-10-13T08:30:15;16.80;99.90
7461;DHT22;6757;52.258;12.840;2023-10-13T08:32:53;16.90;99.90
7461;DHT22;6757;52.258;12.840;2023-10-13T08:35:24;16.70;99.90
7461;DHT22;6757;52.258;12.840;2023-10-13T08:38:01;16.90;99.90
7461;DHT22;6757;52.258;12.840;2023-10-13T08:40:43;16.90;99.90
7461;DHT22;6757;52.258;12.840;2023-10-13T08:43:42;17.10;99.90
7461;DHT22;6757;52.258;12.840;2023-10-13T08:46:11;17.20;99.90
7461;DHT22;6757;52.258;12.840;2023-10-13T08:48:54;17.20;99.90
7461;DHT22;6757;52.258;12.840;2023-10-13T08:51:33;17.20;99.90
7461;DHT22;6757;52.258;12.840;2023-10-13T08:54:18;17.30;99.90
7461;DHT22;6757;52.258;12.840;2023-10-13T08:57:01;17.30;99.90
7461;DHT22;6757;52.258;12.840;2023-10-13T08:59:45;17.40;99.90
7461;DHT22;6757;52.258;12.840;2023-10-13T09:02:21;17.40;99.90
7461;DHT22;6757;52.258;12.840;2023-10-13T09:05:10;17.50;99.90
7461;DHT22;6757;52.258;12.840;2023-10-13T09:07:51;17.50;99.90
7461;DHT22;6757;52.258;12.840;2023-10-13T09:10:22;17.70;99.90
7461;DHT22;6757;52.258;12.840;2023-10-13T09:12:58;17.60;99.90
7461;DHT22;6757;52.258;12.840;2023-10-13T09:15:30;17.60;99.90
7461;DHT22;6757;52.258;12.840;2023-10-13T09:18:23;17.60;99.90
7461;DHT22;6757;52.258;12.840;2023-10-13T09:21:09;17.60;99.90
7461;DHT22;6757;52.258;12.840;2023-10-13T09:23:53;17.70;99.90
7461;DHT22;6757;52.258;12.840;2023-10-13T09:26:40;17.70;99.90
7461;DHT22;6757;52.258;12.840;2023-10-13T09:29:14;17.70;99.90
7461;DHT22;6757;52.258;12.840;2023-10-13T09:31:44;17.80;99.90
7461;DHT22;6757;52.258;12.840;2023-10-13T09:34:21;17.70;99.90
7461;DHT22;6757;52.258;12.840;2023-10-13T09:36:57;17.80;99.90
7461;DHT22;6757;52.258;12.840;2023-10-13T09:39:24;17.80;99.90
7461;DHT22;6757;52.258;12.840;2023-10-13T09:42:07;18.10;99.90
7461;DHT22;6757;52.258;12.840;2023-10-13T09:44:36;17.80;99.90
7461;DHT22;6757;52.258;12.840;2023-10-13T09:47:09;18.00;99.90
7461;DHT22;6757;52.258;12.840;2023-10-13T09:49:44;18.40;99.90
7461;DHT22;6757;52.258;12.840;2023-10-13T09:52:15;17.80;99.90
7461;DHT22;6757;52.258;12.840;2023-10-13T09:54:55;17.80;99.90
7461;DHT22;6757;52.258;12.840;2023-10-13T09:57:43;17.80;99.90
7461;DHT22;6757;52.258;12.840;2023-10-13T10:00:14;17.80;99.90
7461;DHT22;6757;52.258;12.840;2023-10-13T10:03:00;17.80;99.90
7461;DHT22;6757;52.258;12.840;2023-10-13T10:05:40;17.80;99.90
7461;DHT22;6757;52.258;12.840;2023-10-13T10:08:08;17.80;99.90
7461;DHT22;6757;52.258;12.840;2023-10-13T10:10:47;17.80;99.90
7461;DHT22;6757;52.258;12.840;2023-10-13T10:13:26;17.50;99.90
7461;DHT22;6757;52.258;12.840;2023-10-13T10:16:09;17.70;99.90
7461;DHT22;6757;52.258;12.840;2023-10-13T10:18:40;17.90;99.90
7461;DHT22;6757;52.258;12.840;2023-10-13T10:21:07;17.70;99.90
7461;DHT22;6757;52.258;12.840;2023-10-13T10:23:37;17.70;99.90
7461;DHT22;6757;52.258;12.840;2023-10-13T10:26:11;17.70;99.90
7461;DHT22;6757;52.258;12.840;2023-10-13T10:28:42;17.80;99.90
7461;DHT22;6757;52.258;12.840;2023-10-13T10:31:09;17.70;99.90
7461;DHT22;6757;52.258;12.840;2023-10-13T10:33:38;17.80;99.90
7461;DHT22;6757;52.258;12.840;2023-10-13T10:36:05;17.80;99.90
7461;DHT22;6757;52.258;12.840;2023-10-13T10:38:51;17.80;99.90
7461;DHT22;6757;52.258;12.840;2023-10-13T10:41:25;17.80;99.90
7461;DHT22;6757;52.258;12.840;2023-10-13T10:44:09;17.80;99.90
7461;DHT22;6757;52.258;12.840;2023-10-13T10:46:41;17.80;99.90
7461;DHT22;6757;52.258;12.840;2023-10-13T10:49:17;17.80;99.90
7461;DHT22;6757;52.258;12.840;2023-10-13T10:51:57;17.80;99.90
7461;DHT22;6757;52.258;12.840;2023-10-13T10:54:28;17.80;99.90
7461;DHT22;6757;52.258;12.840;2023-10-13T10:56:57;17.80;99.90
7461;DHT22;6757;52.258;12.840;2023-10-13T10:59:36;17.70;99.90
7461;DHT22;6757;52.258;12.840;2023-10-13T11:02:04;18.00;99.90
7461;DHT22;6757;52.258;12.840;2023-10-13T11:04:34;18.30;99.90
7461;DHT22;6757;52.258;12.840;2023-10-13T11:07:06;18.00;99.90
7461;DHT22;6757;52.258;12.840;2023-10-13T11:09:35;18.00;99.90
7461;DHT22;6757;52.258;12.840;2023-10-13T11:12:12;18.10;99.90
7461;DHT22;6757;52.258;12.840;2023-10-13T11:14:41;18.10;99.90
7461;DHT22;6757;52.258;12.840;2023-10-13T11:17:18;18.40;99.90
7461;DHT22;6757;52.258;12.840;2023-10-13T11:19:50;18.20;99.90
7461;DHT22;6757;52.258;12.840;2023-10-13T11:22:19;18.00;99.90
7461;DHT22;6757;52.258;12.840;2023-10-13T11:25:00;18.30;99.90
7461;DHT22;6757;52.258;12.840;2023-10-13T11:27:35;18.40;99.90
7461;DHT22;6757;52.258;12.840;2023-10-13T11:30:22;18.50;99.90
7461;DHT22;6757;52.258;12.840;2023-10-13T11:32:58;18.60;99.90
7461;DHT22;6757;52.258;12.840;2023-10-13T11:35:25;18.60;99.90
7461;DHT22;6757;52.258;12.840;2023-10-13T11:37:55;18.80;99.90
7461;DHT22;6757;52.258;12.840;2023-10-13T11:40:30;18.90;99.90
7461;DHT22;6757;52.258;12.840;2023-10-13T11:43:33;19.00;99.90
7461;DHT22;6757;52.258;12.840;2023-10-13T11:46:13;18.90;99.90
7461;DHT22;6757;52.258;12.840;2023-10-13T11:48:43;19.10;99.90
7461;DHT22;6757;52.258;12.840;2023-10-13T11:51:13;19.10;99.90
7461;DHT22;6757;52.258;12.840;2023-10-13T11:53:43;19.30;99.90
7461;DHT22;6757;52.258;12.840;2023-10-13T11:56:11;19.30;99.90
7461;DHT22;6757;52.258;12.840;2023-10-13T11:58:39;19.40;99.90
7461;DHT22;6757;52.258;12.840;2023-10-13T12:01:07;19.40;99.90
7461;DHT22;6757;52.258;12.840;2023-10-13T12:03:47;19.60;99.90
7461;DHT22;6757;52.258;12.840;2023-10-13T12:06:33;19.60;99.90
7461;DHT22;6757;52.258;12.840;2023-10-13T12:09:12;19.70;99.90
7461;DHT22;6757;52.258;12.840;2023-10-13T12:12:02;19.80;99.90
7461;DHT22;6757;52.258;12.840;2023-10-13T12:14:30;19.80;99.90
7461;DHT22;6757;52.258;12.840;2023-10-13T12:17:02;19.90;99.90
7461;DHT22;6757;52.258;12.840;2023-10-13T12:19:30;20.10;99.90
7461;DHT22;6757;52.258;12.840;2023-10-13T12:21:57;20.10;99.90
7461;DHT22;6757;52.258;12.840;2023-10-13T12:24:29;20.20;99.90
7461;DHT22;6757;52.258;12.840;2023-10-13T12:27:07;20.20;99.90
7461;DHT22;6757;52.258;12.840;2023-10-13T12:29:45;20.40;99.90
7461;DHT22;6757;52.258;12.840;2023-10-13T12:32:12;20.40;99.90
7461;DHT22;6757;52.258;12.840;2023-10-13T12:34:40;20.40;99.90
7461;DHT22;6757;52.258;12.840;2023-10-13T12:37:26;20.50;99.90
7461;DHT22;6757;52.258;12.840;2023-10-13T12:40:16;20.60;99.90
7461;DHT22;6757;52.258;12.840;2023-10-13T12:42:59;20.60;99.90
7461;DHT22;6757;52.258;12.840;2023-10-13T12:45:45;20.70;99.90
7461;DHT22;6757;52.258;12.840;2023-10-13T12:48:30;21.00;99.90
7461;DHT22;6757;52.258;12.840;2023-10-13T12:51:15;20.80;99.90
7461;DHT22;6757;52.258;12.840;2023-10-13T12:54:06;20.80;99.90
7461;DHT22;6757;52.258;12.840;2023-10-13T12:56:39;20.90;99.90
7461;DHT22;6757;52.258;12.840;2023-10-13T12:59:08;21.00;99.90
7461;DHT22;6757;52.258;12.840;2023-10-13T13:01:39;21.10;99.90
7461;DHT22;6757;52.258;12.840;2023-10-13T13:04:08;21.30;99.90
7461;DHT22;6757;52.258;12.840;2023-10-13T13:06:44;21.40;99.90
7461;DHT22;6757;52.258;12.840;2023-10-13T13:09:10;21.50;99.90
7461;DHT22;6757;52.258;12.840;2023-10-13T13:11:37;21.60;99.90
7461;DHT22;6757;52.258;12.840;2023-10-13T13:14:05;21.60;99.90
7461;DHT22;6757;52.258;12.840;2023-10-13T13:16:35;21.60;99.90
7461;DHT22;6757;52.258;12.840;2023-10-13T13:19:04;21.90;99.90
7461;DHT22;6757;52.258;12.840;2023-10-13T13:21:36;21.60;99.90
7461;DHT22;6757;52.258;12.840;2023-10-13T13:24:04;21.60;99.90
7461;DHT22;6757;52.258;12.840;2023-10-13T13:26:36;21.60;99.90
7461;DHT22;6757;52.258;12.840;2023-10-13T13:29:06;21.70;99.90
7461;DHT22;6757;52.258;12.840;2023-10-13T13:31:36;21.70;99.90
7461;DHT22;6757;52.258;12.840;2023-10-13T13:34:06;21.80;99.90
7461;DHT22;6757;52.258;12.840;2023-10-13T13:36:35;21.90;99.90
7461;DHT22;6757;52.258;12.840;2023-10-13T13:39:02;22.20;99.90
7461;DHT22;6757;52.258;12.840;2023-10-13T13:41:29;22.50;99.90
7461;DHT22;6757;52.258;12.840;2023-10-13T13:43:58;22.50;99.90
7461;DHT22;6757;52.258;12.840;2023-10-13T13:46:39;22.60;99.90
7461;DHT22;6757;52.258;12.840;2023-10-13T13:49:08;22.80;99.90
7461;DHT22;6757;52.258;12.840;2023-10-13T13:51:44;23.00;99.90
7461;DHT22;6757;52.258;12.840;2023-10-13T13:54:17;23.00;99.90
7461;DHT22;6757;52.258;12.840;2023-10-13T13:56:45;23.10;99.90
7461;DHT22;6757;52.258;12.840;2023-10-13T13:59:11;23.10;99.90
7461;DHT22;6757;52.258;12.840;2023-10-13T14:01:42;23.20;99.90
7461;DHT22;6757;52.258;12.840;2023-10-13T14:04:09;23.80;99.90
7461;DHT22;6757;52.258;12.840;2023-10-13T14:06:37;24.00;99.90
7461;DHT22;6757;52.258;12.840;2023-10-13T14:09:05;24.40;99.90
7461;DHT22;6757;52.258;12.840;2023-10-13T14:11:41;24.70;99.90
7461;DHT22;6757;52.258;12.840;2023-10-13T14:14:26;25.00;99.90
7461;DHT22;6757;52.258;12.840;2023-10-13T14:17:00;25.30;99.90
7461;DHT22;6757;52.258;12.840;2023-10-13T14:19:32;25.70;99.90
7461;DHT22;6757;52.258;12.840;2023-10-13T14:22:01;25.50;99.90
7461;DHT22;6757;52.258;12.840;2023-10-13T14:24:32;25.40;99.90
7461;DHT22;6757;52.258;12.840;2023-10-13T14:27:01;25.00;99.90
7461;DHT22;6757;52.258;12.840;2023-10-13T14:29:34;24.80;99.90
7461;DHT22;6757;52.258;12.840;2023-10-13T14:32:07;24.50;99.90
7461;DHT22;6757;52.258;12.840;2023-10-13T14:34:38;24.00;99.90
7461;DHT22;6757;52.258;12.840;2023-10-13T14:37:06;23.70;99.90
7461;DHT22;6757;52.258;12.840;2023-10-13T14:39:33;23.30;99.90
7461;DHT22;6757;52.258;12.840;2023-10-13T14:42:02;23.10;99.90
7461;DHT22;6757;52.258;12.840;2023-10-13T14:44:31;22.90;99.90
7461;DHT22;6757;52.258;12.840;2023-10-13T14:46:58;22.60;99.90
7461;DHT22;6757;52.258;12.840;2023-10-13T14:49:26;22.50;99.90
7461;DHT22;6757;52.258;12.840;2023-10-13T14:51:53;22.40;99.90
7461;DHT22;6757;52.258;12.840;2023-10-13T14:54:21;22.20;99.90
7461;DHT22;6757;52.258;12.840;2023-10-13T14:56:59;22.10;99.90
7461;DHT22;6757;52.258;12.840;2023-10-13T14:59:27;22.00;99.90
7461;DHT22;6757;52.258;12.840;2023-10-13T15:01:59;21.90;99.90
7461;DHT22;6757;52.258;12.840;2023-10-13T15:04:28;21.80;99.90
7461;DHT22;6757;52.258;12.840;2023-10-13T15:06:58;21.80;99.90
7461;DHT22;6757;52.258;12.840;2023-10-13T15:09:27;21.60;99.90
7461;DHT22;6757;52.258;12.840;2023-10-13T15:11:54;21.70;99.90
7461;DHT22;6757;52.258;12.840;2023-10-13T15:14:21;21.60;99.90
7461;DHT22;6757;52.258;12.840;2023-10-13T15:16:49;21.70;99.90
7461;DHT22;6757;52.258;12.840;2023-10-13T15:19:17;21.50;99.90
7461;DHT22;6757;52.258;12.840;2023-10-13T15:21:45;21.50;99.90
7461;DHT22;6757;52.258;12.840;2023-10-13T15:24:15;21.40;99.90
7461;DHT22;6757;52.258;12.840;2023-10-13T15:26:43;21.40;99.90
7461;DHT22;6757;52.258;12.840;2023-10-13T15:29:13;21.60;99.90
7461;DHT22;6757;52.258;12.840;2023-10-13T15:31:42;21.30;99.90
7461;DHT22;6757;52.258;12.840;2023-10-13T15:34:19;21.30;99.90
7461;DHT22;6757;52.258;12.840;2023-10-13T15:36:50;21.30;99.90
7461;DHT22;6757;52.258;12.840;2023-10-13T15:39:20;21.40;99.90
7461;DHT22;6757;52.258;12.840;2023-10-13T15:41:50;21.30;99.90
7461;DHT22;6757;52.258;12.840;2023-10-13T15:44:19;21.30;99.90
7461;DHT22;6757;52.258;12.840;2023-10-13T15:46:52;21.30;99.90
7461;DHT22;6757;52.258;12.840;2023-10-13T15:49:19;21.30;99.90
7461;DHT22;6757;52.258;12.840;2023-10-13T15:51:46;21.30;99.90
7461;DHT22;6757;52.258;12.840;2023-10-13T15:54:14;21.40;99.90
7461;DHT22;6757;52.258;12.840;2023-10-13T15:56:43;21.40;99.90
7461;DHT22;6757;52.258;12.840;2023-10-13T15:59:11;21.30;99.90
7461;DHT22;6757;52.258;12.840;2023-10-13T16:01:38;21.40;99.90
7461;DHT22;6757;52.258;12.840;2023-10-13T16:04:06;21.40;99.90
7461;DHT22;6757;52.258;12.840;2023-10-13T16:06:37;21.10;99.90
7461;DHT22;6757;52.258;12.840;2023-10-13T16:09:05;21.40;99.90
7461;DHT22;6757;52.258;12.840;2023-10-13T16:11:40;21.40;99.90
7461;DHT22;6757;52.258;12.840;2023-10-13T16:14:08;21.30;99.90
7461;DHT22;6757;52.258;12.840;2023-10-13T16:16:41;21.30;99.90
7461;DHT22;6757;52.258;12.840;2023-10-13T16:19:12;21.30;99.90
7461;DHT22;6757;52.258;12.840;2023-10-13T16:21:39;21.30;99.90
7461;DHT22;6757;52.258;12.840;2023-10-13T16:24:06;21.30;99.90
7461;DHT22;6757;52.258;12.840;2023-10-13T16:26:36;21.30;99.90